createdAt,value
2022-12-04T00:02:05.120Z,134.10
2022-12-04T00:04:53.879Z,137.23
2022-12-04T00:07:36.228Z,136.23
2022-12-04T00:10:24.881Z,136.73
2022-12-04T00:13:07.519Z,135.88
2022-12-04T00:15:56.934Z,135.05
2022-12-04T00:18:45.826Z,132.05
2022-12-04T00:21:34.844Z,133.75
2022-12-04T00:24:17.153Z,135.20
2022-12-04T00:27:05.872Z,134.75
2022-12-04T00:29:50.915Z,133.27
2022-12-04T00:32:39.827Z,134.65
2022-12-04T00:35:22.142Z,135.35
2022-12-04T00:38:10.834Z,136.10
2022-12-04T00:41:02.094Z,134.75
2022-12-04T00:43:50.835Z,134.82
2022-12-04T00:46:33.239Z,131.75
2022-12-04T00:49:21.831Z,132.15
2022-12-04T00:52:04.132Z,129.88
2022-12-04T00:54:52.883Z,129.85
2022-12-04T00:57:35.114Z,129.43
2022-12-04T01:00:23.862Z,128.65
2022-12-04T01:03:06.229Z,132.68
2022-12-04T01:05:54.854Z,129.30
2022-12-04T01:08:43.880Z,125.20
2022-12-04T01:11:34.814Z,128.70
2022-12-04T01:14:23.879Z,128.57
2022-12-04T01:17:12.151Z,129.77
2022-12-04T01:19:54.114Z,132.90
2022-12-04T01:22:42.834Z,131.05
2022-12-04T01:25:25.269Z,130.80
2022-12-04T01:28:13.881Z,135.30
2022-12-04T01:31:14.302Z,133.77
2022-12-04T01:34:02.818Z,132.73
2022-12-04T01:36:51.807Z,138.10
2022-12-04T01:39:40.842Z,134.63
2022-12-04T01:42:30.827Z,135.35
2022-12-04T01:45:51.897Z,137.10
2022-12-04T01:48:54.131Z,140.65
2022-12-04T01:51:47.815Z,132.57
2022-12-04T01:54:44.869Z,133.88
2022-12-04T01:57:37.501Z,133.15
2022-12-04T02:00:23.876Z,132.50
2022-12-04T02:03:12.929Z,132.75
2022-12-04T02:05:55.109Z,130.85
2022-12-04T02:08:44.903Z,130.90
2022-12-04T02:12:00.103Z,132.98
2022-12-04T02:15:06.852Z,133.93
2022-12-04T02:18:20.801Z,131.52
2022-12-04T02:22:07.711Z,132.18
2022-12-04T02:25:15.868Z,132.52
2022-12-04T02:28:30.429Z,136.80
2022-12-04T02:31:24.847Z,136.85
2022-12-04T02:34:15.146Z,137.13
2022-12-04T02:37:17.839Z,140.00
2022-12-04T02:40:05.167Z,139.50
2022-12-04T02:43:00.860Z,141.35
2022-12-04T02:45:51.363Z,150.20
2022-12-04T02:48:43.850Z,145.73
2022-12-04T02:51:30.089Z,146.52
2022-12-04T02:54:32.801Z,144.27
2022-12-04T02:57:21.562Z,145.27
2022-12-04T03:00:15.760Z,144.65
2022-12-04T03:03:15.790Z,144.82
2022-12-04T03:06:18.760Z,145.30
2022-12-04T03:09:39.709Z,144.10
2022-12-04T03:13:00.855Z,139.00
2022-12-04T03:15:51.772Z,141.77
2022-12-04T03:18:54.803Z,140.18
2022-12-04T03:21:46.745Z,140.27
2022-12-04T03:24:52.884Z,138.02
2022-12-04T03:27:59.149Z,124.25
2022-12-04T03:30:49.871Z,117.40
2022-12-04T03:33:46.752Z,111.60
2022-12-04T03:37:13.801Z,104.43
2022-12-04T03:40:10.099Z,92.07
2022-12-04T03:43:19.801Z,91.22
2022-12-04T03:46:34.293Z,88.88
2022-12-04T03:50:00.719Z,93.82
2022-12-04T03:53:16.807Z,91.68
2022-12-04T03:56:34.134Z,88.68
2022-12-04T03:59:56.268Z,88.32
2022-12-04T04:02:46.155Z,87.33
2022-12-04T04:05:36.802Z,82.28
2022-12-04T04:08:28.006Z,83.35
2022-12-04T04:11:25.723Z,82.45
2022-12-04T04:14:44.846Z,79.22
2022-12-04T04:18:02.657Z,72.45
2022-12-04T04:21:24.786Z,61.92
2022-12-04T04:24:16.666Z,57.45
2022-12-04T04:27:06.696Z,58.40
2022-12-04T04:29:52.742Z,56.72
2022-12-04T04:32:51.701Z,55.63
2022-12-04T04:35:46.117Z,54.65
2022-12-04T04:38:34.788Z,59.60
2022-12-04T04:41:26.840Z,56.50
2022-12-04T04:44:35.884Z,52.17
2022-12-04T04:47:32.833Z,43.42
2022-12-04T04:50:17.603Z,39.33
2022-12-04T04:53:13.827Z,40.47
2022-12-04T04:55:56.256Z,38.65
2022-12-04T04:58:44.796Z,36.85
2022-12-04T05:01:30.124Z,33.30
2022-12-04T05:04:19.822Z,31.90
2022-12-04T05:07:01.930Z,32.38
2022-12-04T05:09:50.800Z,32.25
2022-12-04T05:12:33.117Z,30.38
2022-12-04T05:15:22.852Z,31.58
2022-12-04T05:18:05.137Z,30.38
2022-12-04T05:20:54.722Z,28.88
2022-12-04T05:23:43.743Z,29.65
2022-12-04T05:26:26.589Z,32.88
2022-12-04T05:29:15.713Z,30.77
2022-12-04T05:32:04.738Z,32.55
2022-12-04T05:34:49.839Z,31.27
2022-12-04T05:37:39.894Z,31.20
2022-12-04T05:40:29.052Z,33.00
2022-12-04T05:43:11.826Z,31.98
2022-12-04T05:45:54.269Z,31.73
2022-12-04T05:48:42.704Z,33.85
2022-12-04T05:51:31.739Z,32.63
2022-12-04T05:54:14.193Z,33.10
2022-12-04T05:57:03.797Z,31.77
2022-12-04T05:59:52.817Z,32.53
2022-12-04T06:02:35.859Z,33.10
2022-12-04T06:05:24.695Z,35.35
2022-12-04T06:08:13.263Z,35.67
2022-12-04T06:10:54.787Z,32.33
2022-12-04T06:13:36.978Z,34.35
2022-12-04T06:16:34.867Z,33.50
2022-12-04T06:19:33.682Z,33.92
2022-12-04T06:22:15.811Z,35.50
2022-12-04T06:25:04.691Z,35.05
2022-12-04T06:27:47.085Z,36.10
2022-12-04T06:30:36.085Z,34.90
2022-12-04T06:33:18.128Z,35.72
2022-12-04T06:36:08.698Z,37.13
2022-12-04T06:38:52.049Z,36.75
2022-12-04T06:41:40.857Z,38.15
2022-12-04T06:44:24.162Z,36.92
2022-12-04T06:47:13.789Z,36.80
2022-12-04T06:50:05.749Z,38.70
2022-12-04T06:52:54.776Z,36.58
2022-12-04T06:55:37.105Z,36.53
2022-12-04T06:58:25.732Z,36.03
2022-12-04T07:01:08.119Z,35.83
2022-12-04T07:03:56.779Z,37.67
2022-12-04T07:06:45.216Z,34.60
2022-12-04T07:09:33.724Z,31.00
2022-12-04T07:12:22.823Z,33.42
2022-12-04T07:15:18.681Z,34.58
2022-12-04T07:18:14.744Z,34.33
2022-12-04T07:21:03.827Z,39.97
2022-12-04T07:23:55.880Z,36.05
2022-12-04T07:26:38.035Z,41.75
2022-12-04T07:29:26.770Z,37.00
2022-12-04T07:32:15.810Z,38.72
2022-12-04T07:34:58.072Z,36.50
2022-12-04T07:37:46.731Z,39.95
2022-12-04T07:40:35.818Z,44.80
2022-12-04T07:43:24.730Z,47.20
2022-12-04T07:46:12.197Z,42.75
2022-12-04T07:49:00.797Z,35.72
2022-12-04T07:51:43.168Z,36.63
2022-12-04T07:54:31.824Z,39.10
2022-12-04T07:57:14.128Z,35.33
2022-12-04T08:00:02.751Z,34.60
2022-12-04T08:02:53.734Z,35.95
2022-12-04T08:05:36.081Z,37.88
2022-12-04T08:08:24.765Z,41.50
2022-12-04T08:11:10.143Z,40.55
2022-12-04T08:13:59.740Z,40.58
2022-12-04T08:16:52.730Z,40.40
2022-12-04T08:19:41.154Z,38.58
2022-12-04T08:22:25.481Z,35.05
2022-12-04T08:25:08.271Z,35.80
2022-12-04T08:27:57.817Z,37.35
2022-12-04T08:30:46.200Z,37.20
2022-12-04T08:33:28.857Z,35.95
2022-12-04T08:36:20.748Z,34.67
2022-12-04T08:39:03.808Z,38.35
2022-12-04T08:41:57.000Z,42.58
2022-12-04T08:44:39.066Z,37.67
2022-12-04T08:47:27.833Z,37.35
2022-12-04T08:50:11.132Z,36.53
2022-12-04T08:52:59.668Z,37.37
2022-12-04T08:55:49.803Z,39.35
2022-12-04T08:58:39.321Z,40.85
2022-12-04T09:01:22.787Z,39.90
2022-12-04T09:04:12.837Z,43.40
2022-12-04T09:07:01.704Z,43.58
2022-12-04T09:09:51.098Z,47.75
2022-12-04T09:12:32.676Z,44.83
2022-12-04T09:15:15.308Z,47.15
2022-12-04T09:18:03.772Z,50.47
2022-12-04T09:20:52.700Z,52.45
2022-12-04T09:23:42.837Z,53.58
2022-12-04T09:26:29.416Z,56.95
2022-12-04T09:29:20.788Z,56.67
2022-12-04T09:32:09.768Z,57.55
2022-12-04T09:34:52.983Z,53.90
2022-12-04T09:37:35.823Z,53.97
2022-12-04T09:40:37.162Z,50.65
2022-12-04T09:43:37.700Z,51.13
2022-12-04T09:46:51.387Z,52.70
2022-12-04T09:49:42.363Z,48.58
2022-12-04T09:52:51.808Z,46.72
2022-12-04T09:56:00.142Z,43.25
2022-12-04T09:59:07.843Z,42.30
2022-12-04T10:02:05.336Z,42.35
2022-12-04T10:04:53.719Z,39.63
2022-12-04T10:08:05.766Z,41.45
2022-12-04T10:11:21.226Z,40.95
2022-12-04T10:14:11.745Z,42.45
2022-12-04T10:17:36.313Z,41.42
2022-12-04T10:20:42.830Z,42.23
2022-12-04T10:23:53.170Z,40.22
2022-12-04T10:26:47.779Z,38.35
2022-12-04T10:29:39.280Z,39.58
2022-12-04T10:32:48.733Z,37.83
2022-12-04T10:35:44.677Z,38.45
2022-12-04T10:38:51.448Z,37.30
2022-12-04T10:41:50.815Z,40.63
2022-12-04T10:44:39.097Z,39.85
2022-12-04T10:47:21.735Z,37.15
2022-12-04T10:50:14.724Z,35.78
2022-12-04T10:53:08.196Z,37.70
2022-12-04T10:55:52.944Z,37.33
2022-12-04T10:58:41.764Z,37.28
2022-12-04T11:01:24.806Z,37.78
2022-12-04T11:04:44.709Z,38.95
2022-12-04T11:07:37.229Z,37.42
2022-12-04T11:11:05.701Z,39.33
2022-12-04T11:13:54.772Z,37.97
2022-12-04T11:16:41.323Z,41.42
2022-12-04T11:19:33.704Z,41.17
2022-12-04T11:22:24.230Z,43.08
2022-12-04T11:25:12.674Z,43.35
2022-12-04T11:28:01.229Z,45.28
2022-12-04T11:30:54.796Z,46.03
2022-12-04T11:34:02.130Z,47.10
2022-12-04T11:37:11.747Z,46.78
2022-12-04T11:40:31.683Z,48.55
2022-12-04T11:43:38.825Z,48.05
2022-12-04T11:46:48.861Z,48.85
2022-12-04T11:50:04.680Z,50.03
2022-12-04T11:53:19.809Z,48.20
2022-12-04T11:56:39.827Z,51.38
2022-12-04T11:59:51.096Z,52.10
2022-12-04T12:03:26.877Z,51.35
2022-12-04T12:06:43.135Z,52.88
2022-12-04T12:10:04.784Z,53.88
2022-12-04T12:13:32.841Z,52.28
2022-12-04T12:16:56.803Z,52.10
2022-12-04T12:20:14.971Z,52.65
2022-12-04T12:23:37.665Z,55.10
2022-12-04T12:26:27.867Z,48.80
2022-12-04T12:29:11.322Z,49.55
2022-12-04T12:32:01.827Z,52.22
2022-12-04T12:34:48.064Z,51.88
2022-12-04T12:37:51.880Z,50.35
2022-12-04T12:40:49.063Z,51.13
2022-12-04T12:43:43.790Z,53.22
2022-12-04T12:46:50.925Z,52.95
2022-12-04T12:50:03.746Z,54.33
2022-12-04T12:53:23.080Z,53.88
2022-12-04T12:56:14.792Z,53.05
2022-12-04T12:59:04.160Z,53.53
2022-12-04T13:02:06.813Z,55.80
2022-12-04T13:04:58.711Z,55.15
2022-12-04T13:08:12.210Z,54.90
2022-12-04T13:11:18.678Z,54.85
2022-12-04T13:14:04.359Z,56.15
2022-12-04T13:17:01.724Z,53.75
2022-12-04T13:20:09.870Z,53.72
2022-12-04T13:23:05.768Z,54.80
2022-12-04T13:26:20.655Z,55.75
2022-12-04T13:29:29.806Z,56.38
2022-12-04T13:32:36.697Z,54.70
2022-12-04T13:35:43.182Z,59.47
2022-12-04T13:39:22.702Z,57.50
2022-12-04T13:42:15.007Z,56.63
2022-12-04T13:45:06.818Z,58.15
2022-12-04T13:48:08.652Z,58.60
2022-12-04T13:50:51.022Z,58.83
2022-12-04T13:53:42.732Z,58.08
2022-12-04T13:56:43.749Z,57.80
2022-12-04T13:59:29.137Z,59.17
2022-12-04T14:02:36.814Z,56.95
2022-12-04T14:05:29.509Z,58.67
2022-12-04T14:08:22.853Z,63.23
2022-12-04T14:11:20.064Z,64.83
2022-12-04T14:14:11.686Z,71.97
2022-12-04T14:17:01.783Z,92.18
2022-12-04T14:20:07.330Z,97.47
2022-12-04T14:22:50.719Z,86.50
2022-12-04T14:25:49.653Z,86.15
2022-12-04T14:28:41.992Z,82.47
2022-12-04T14:31:48.735Z,80.82
2022-12-04T14:34:39.869Z,77.05
2022-12-04T14:37:46.114Z,71.50
2022-12-04T14:40:41.793Z,74.38
2022-12-04T14:43:33.054Z,73.18
2022-12-04T14:46:47.739Z,72.20
2022-12-04T14:49:49.213Z,74.03
2022-12-04T14:52:51.736Z,68.68
2022-12-04T14:55:54.211Z,69.25
2022-12-04T14:58:45.648Z,68.80
2022-12-04T15:01:46.214Z,69.53
2022-12-04T15:04:43.812Z,68.20
2022-12-04T15:07:32.198Z,66.97
2022-12-04T15:10:47.781Z,70.35
2022-12-04T15:13:45.103Z,67.72
2022-12-04T15:16:33.813Z,67.47
2022-12-04T15:19:27.271Z,68.32
2022-12-04T15:22:29.891Z,67.93
2022-12-04T15:25:13.116Z,69.35
2022-12-04T15:28:10.790Z,69.20
2022-12-04T15:30:55.719Z,69.00
2022-12-04T15:33:46.053Z,69.93
2022-12-04T15:36:52.480Z,70.18
2022-12-04T15:39:44.804Z,72.28
2022-12-04T15:42:30.220Z,71.63
2022-12-04T15:45:20.865Z,71.75
2022-12-04T15:48:06.292Z,68.10
2022-12-04T15:51:04.640Z,71.40
2022-12-04T15:53:52.412Z,70.85
2022-12-04T15:56:41.798Z,68.45
2022-12-04T15:59:26.270Z,70.00
2022-12-04T16:02:35.767Z,69.47
2022-12-04T16:05:30.163Z,70.55
2022-12-04T16:08:39.655Z,70.15
2022-12-04T16:11:34.827Z,70.18
2022-12-04T16:14:26.104Z,69.88
2022-12-04T16:17:09.645Z,71.07
2022-12-04T16:19:59.086Z,71.55
2022-12-04T16:22:41.925Z,71.68
2022-12-04T16:25:24.091Z,76.07
2022-12-04T16:28:16.896Z,73.30
2022-12-04T16:30:59.749Z,74.72
2022-12-04T16:33:48.669Z,76.20
2022-12-04T16:36:40.604Z,74.00
2022-12-04T16:39:23.983Z,75.68
2022-12-04T16:42:13.293Z,76.17
2022-12-04T16:44:56.213Z,72.00
2022-12-04T16:47:53.257Z,71.55
2022-12-04T16:50:44.271Z,71.78
2022-12-04T16:53:28.746Z,72.43
2022-12-04T16:56:17.776Z,75.60
2022-12-04T16:59:00.120Z,73.53
2022-12-04T17:01:56.040Z,71.90
2022-12-04T17:04:38.333Z,73.15
2022-12-04T17:07:28.824Z,75.03
2022-12-04T17:10:22.002Z,73.93
2022-12-04T17:13:12.867Z,72.93
2022-12-04T17:15:55.175Z,73.43
2022-12-04T17:19:02.718Z,73.00
2022-12-04T17:22:11.006Z,74.90
2022-12-04T17:25:14.866Z,72.75
2022-12-04T17:28:24.633Z,75.93
2022-12-04T17:31:28.139Z,72.57
2022-12-04T17:34:36.782Z,73.57
2022-12-04T17:37:39.681Z,73.18
2022-12-04T17:40:48.653Z,76.38
2022-12-04T17:43:51.225Z,74.93
2022-12-04T17:47:00.836Z,76.30
2022-12-04T17:50:05.640Z,74.13
2022-12-04T17:53:14.716Z,75.75
2022-12-04T17:56:25.768Z,75.70
2022-12-04T17:59:28.088Z,75.57
2022-12-04T18:02:36.726Z,74.03
2022-12-04T18:05:39.131Z,75.55
2022-12-04T18:08:50.252Z,76.40
2022-12-04T18:11:57.291Z,76.93
2022-12-04T18:15:05.708Z,77.25
2022-12-04T18:18:08.252Z,75.63
2022-12-04T18:21:19.764Z,77.88
2022-12-04T18:24:23.097Z,74.40
2022-12-04T18:27:32.604Z,78.73
2022-12-04T18:30:35.107Z,76.50
2022-12-04T18:33:24.740Z,83.85
2022-12-04T18:36:10.283Z,81.22
2022-12-04T18:39:03.614Z,80.38
2022-12-04T18:41:52.781Z,80.38
2022-12-04T18:44:41.042Z,82.68
2022-12-04T18:47:22.653Z,83.50
2022-12-04T18:50:14.242Z,85.50
2022-12-04T18:53:00.910Z,87.63
2022-12-04T18:55:49.516Z,88.18
2022-12-04T18:58:31.746Z,91.28
2022-12-04T19:01:24.164Z,91.00
2022-12-04T19:04:10.770Z,89.05
2022-12-04T19:07:02.115Z,88.95
2022-12-04T19:12:45.942Z,86.97
2022-12-04T19:15:36.769Z,90.43
2022-12-04T19:18:19.516Z,88.90
2022-12-04T19:21:08.781Z,83.72
2022-12-04T19:23:54.301Z,88.68
2022-12-04T19:26:46.751Z,87.32
2022-12-04T19:29:29.113Z,86.80
2022-12-04T19:32:17.796Z,83.95
2022-12-04T19:35:06.764Z,85.65
2022-12-04T19:37:52.576Z,86.43
2022-12-04T19:40:41.701Z,86.53
2022-12-04T19:43:24.151Z,85.38
2022-12-04T19:46:15.792Z,87.70
2022-12-04T19:48:59.712Z,94.13
2022-12-04T19:51:48.688Z,85.40
2022-12-04T19:54:31.374Z,90.97
2022-12-04T19:57:22.734Z,92.18
2022-12-04T20:00:04.969Z,89.45
2022-12-04T20:02:56.877Z,92.20
2022-12-04T20:05:42.984Z,92.32
2022-12-04T20:08:31.688Z,87.72
2022-12-04T20:11:26.028Z,91.03
2022-12-04T20:14:15.769Z,93.85
2022-12-04T20:16:59.591Z,88.28
2022-12-04T20:19:49.201Z,85.07
2022-12-04T20:22:31.125Z,88.57
2022-12-04T20:25:19.608Z,91.78
2022-12-04T20:28:01.998Z,89.63
2022-12-04T20:30:50.759Z,91.53
2022-12-04T20:33:33.023Z,90.90
2022-12-04T20:36:22.681Z,89.68
2022-12-04T20:39:13.775Z,94.15
2022-12-04T20:42:02.647Z,93.30
2022-12-04T20:44:44.951Z,96.07
2022-12-04T20:47:27.682Z,93.13
2022-12-04T20:50:17.780Z,93.78
2022-12-04T20:52:59.957Z,93.68
2022-12-04T20:55:48.681Z,93.22
2022-12-04T20:58:30.984Z,92.38
2022-12-04T21:01:22.678Z,93.18
2022-12-04T21:04:15.010Z,96.05
2022-12-04T21:07:03.642Z,95.55
2022-12-04T21:09:52.615Z,94.82
2022-12-04T21:12:53.270Z,91.45
2022-12-04T21:15:59.602Z,93.63
2022-12-04T21:18:41.898Z,96.35
2022-12-04T21:21:32.043Z,95.28
2022-12-04T21:24:22.978Z,96.43
2022-12-04T21:27:05.690Z,95.70
2022-12-04T21:29:54.816Z,95.68
2022-12-04T21:32:36.992Z,96.28
2022-12-04T21:35:25.625Z,94.10
2022-12-04T21:38:08.021Z,97.72
2022-12-04T21:40:57.673Z,93.70
2022-12-04T21:43:40.990Z,95.65
2022-12-04T21:46:22.753Z,100.00
2022-12-04T21:49:05.350Z,97.53
2022-12-04T21:51:58.115Z,99.78
2022-12-04T21:54:40.920Z,99.80
2022-12-04T21:57:29.792Z,98.57
2022-12-04T22:00:12.432Z,98.75
2022-12-04T22:03:01.643Z,97.63
2022-12-04T22:05:44.704Z,98.68
2022-12-04T22:08:33.772Z,98.45
2022-12-04T22:11:18.939Z,100.75
2022-12-04T22:14:07.783Z,99.65
2022-12-04T22:16:53.066Z,98.15
2022-12-04T22:19:41.678Z,102.30
2022-12-04T22:22:24.035Z,101.20
2022-12-04T22:25:12.617Z,100.75
2022-12-04T22:28:01.602Z,100.78
2022-12-04T22:30:43.995Z,102.93
2022-12-04T22:33:32.653Z,102.90
2022-12-04T22:36:18.013Z,98.82
2022-12-04T22:39:15.720Z,101.35
2022-12-04T22:42:04.567Z,104.00
2022-12-04T22:44:47.167Z,108.32
2022-12-04T22:47:35.765Z,108.75
2022-12-04T22:50:19.033Z,106.25
2022-12-04T22:53:07.576Z,109.53
2022-12-04T22:55:49.963Z,106.65
2022-12-04T22:58:38.719Z,110.82
2022-12-04T23:01:24.055Z,110.10
2022-12-04T23:04:13.725Z,112.28
2022-12-04T23:06:56.037Z,111.43
2022-12-04T23:09:44.767Z,110.85
2022-12-04T23:12:28.651Z,109.40
2022-12-04T23:15:17.711Z,111.70
2022-12-04T23:17:59.936Z,119.85
2022-12-04T23:20:48.741Z,113.43
2022-12-04T23:23:30.980Z,107.78
2022-12-04T23:26:22.718Z,108.82
2022-12-04T23:29:23.399Z,113.35
2022-12-04T23:32:16.028Z,108.72
2022-12-04T23:34:58.071Z,111.78
2022-12-04T23:37:46.618Z,110.70
2022-12-04T23:40:28.938Z,110.63
2022-12-04T23:43:17.566Z,108.00
2022-12-04T23:45:59.935Z,108.93
2022-12-04T23:48:49.718Z,112.53
2022-12-04T23:51:32.933Z,111.07
2022-12-04T23:54:21.702Z,115.67
2022-12-04T23:57:10.628Z,110.47
2022-12-04T23:59:54.357Z,110.40
